TimeCST,TemperatureF,Dew PointF,Humidity,Sea Level PressureIn,VisibilityMPH,Wind Direction,Wind SpeedMPH,Gust SpeedMPH,PrecipitationIn,Events,Conditions,WindDirDegrees,DateUTC
12:13 AM,37.4,33.8,87,29.49,5.0,SE,6.9,-,N/A,,Clear,130,2012-12-03 06:13:00
12:34 AM,37.4,33.8,87,29.47,5.0,SE,9.2,16.1,N/A,,Clear,130,2012-12-03 06:34:00
12:53 AM,37.4,33.8,87,29.46,5.0,ESE,10.4,-,N/A,,Clear,120,2012-12-03 06:53:00
1:13 AM,37.4,33.8,87,29.45,5.0,ESE,9.2,-,N/A,,Clear,120,2012-12-03 07:13:00
1:34 AM,37.4,33.8,87,29.44,5.0,ESE,8.1,-,N/A,,Clear,120,2012-12-03 07:34:00
1:53 AM,37.4,33.8,87,29.44,5.0,SE,8.1,-,N/A,,Clear,130,2012-12-03 07:53:00
2:13 AM,37.4,33.8,87,29.42,7.0,SE,9.2,-,N/A,,Clear,140,2012-12-03 08:13:00
2:34 AM,37.4,33.8,87,29.42,7.0,SE,9.2,-,N/A,,Clear,140,2012-12-03 08:34:00
2:54 AM,39.2,33.8,81,29.41,7.0,SE,11.5,16.1,N/A,,Clear,140,2012-12-03 08:54:00
3:13 AM,39.2,33.8,81,29.40,7.0,SE,12.7,-,N/A,,Clear,140,2012-12-03 09:13:00
3:34 AM,37.4,33.8,87,29.39,7.0,SE,13.8,-,N/A,,Clear,140,2012-12-03 09:34:00
3:54 AM,39.2,33.8,81,29.38,7.0,SE,15.0,-,N/A,,Clear,140,2012-12-03 09:54:00
4:13 AM,39.2,33.8,81,29.37,7.0,SSE,16.1,-,N/A,,Clear,150,2012-12-03 10:13:00
4:54 AM,37.4,33.8,87,29.37,7.0,SSE,13.8,-,N/A,,Mostly Cloudy,150,2012-12-03 10:54:00
5:13 AM,37.4,33.8,87,29.35,7.0,SSE,16.1,-,N/A,,Scattered Clouds,150,2012-12-03 11:13:00
5:34 AM,37.4,33.8,87,29.34,7.0,SSE,18.4,-,N/A,,Scattered Clouds,150,2012-12-03 11:34:00
5:54 AM,37.4,33.8,87,29.33,7.0,SSE,18.4,-,N/A,,Mostly Cloudy,150,2012-12-03 11:54:00
6:13 AM,37.4,33.8,87,29.33,7.0,SSE,21.9,-,N/A,,Light Drizzle,150,2012-12-03 12:13:00
6:34 AM,37.4,33.8,87,29.32,7.0,SSE,20.7,-,N/A,,Overcast,160,2012-12-03 12:34:00
6:54 AM,37.4,33.8,87,29.32,7.0,South,17.3,-,N/A,Rain,Light Rain,170,2012-12-03 12:54:00
7:13 AM,37.4,33.8,87,29.32,10.0,SSE,19.6,-,0.01,Rain,Light Rain,160,2012-12-03 13:13:00
7:34 AM,35.6,33.8,93,29.33,7.0,South,16.1,-,0.02,Rain,Light Rain,170,2012-12-03 13:34:00
7:54 AM,35.6,33.8,93,29.33,7.0,SSE,12.7,-,0.02,,Light Drizzle,160,2012-12-03 13:54:00
8:13 AM,35.6,33.8,93,29.33,7.0,South,11.5,-,N/A,,Scattered Clouds,170,2012-12-03 14:13:00
8:34 AM,35.6,33.8,93,29.33,5.0,South,9.2,-,N/A,,Mostly Cloudy,180,2012-12-03 14:34:00
8:54 AM,35.6,33.8,93,29.33,5.0,South,9.2,-,N/A,,Light Drizzle,180,2012-12-03 14:54:00
9:13 AM,35.6,33.8,93,29.34,5.0,South,13.8,-,N/A,,Light Drizzle,180,2012-12-03 15:13:00
9:34 AM,35.6,33.8,93,29.35,5.0,South,8.1,-,N/A,Rain,Light Rain,180,2012-12-03 15:34:00
9:54 AM,35.6,33.8,93,29.33,5.0,SSE,5.8,-,0.01,Rain,Light Rain,160,2012-12-03 15:54:00
10:13 AM,35.6,33.8,93,29.34,4.0,SSE,8.1,-,N/A,Rain,Light Rain,160,2012-12-03 16:13:00
10:34 AM,35.6,33.8,93,29.34,4.0,South,5.8,-,N/A,,Light Drizzle,170,2012-12-03 16:34:00
10:54 AM,35.6,33.8,93,29.34,5.0,SSW,5.8,-,N/A,,Scattered Clouds,210,2012-12-03 16:54:00
11:34 AM,39.2,35.6,87,29.33,10.0,SW,10.4,-,N/A,,Light Drizzle,230,2012-12-03 17:34:00
11:53 AM,39.2,37.4,93,29.35,5.0,WSW,13.8,-,0.01,Rain,Light Rain,250,2012-12-03 17:53:00
12:14 PM,37.4,35.6,93,29.36,5.0,West,13.8,26.5,N/A,Rain,Light Rain,260,2012-12-03 18:14:00
12:33 PM,35.6,33.8,93,29.37,4.0,West,17.3,24.2,0.01,Rain,Light Rain,260,2012-12-03 18:33:00
12:54 PM,35.6,32.0,87,29.36,5.0,West,16.1,-,0.01,Rain,Light Rain,270,2012-12-03 18:54:00
1:14 PM,35.6,32.0,87,29.38,10.0,West,18.4,-,0.01,Rain,Light Rain,260,2012-12-03 19:14:00
1:33 PM,35.6,32.0,87,29.38,10.0,West,21.9,28.8,0.01,,Overcast,270,2012-12-03 19:33:00
1:54 PM,33.8,32.0,93,29.39,7.0,West,21.9,31.1,0.01,,Overcast,270,2012-12-03 19:54:00
2:13 PM,33.8,30.2,87,29.40,7.0,West,19.6,26.5,N/A,,Overcast,260,2012-12-03 20:13:00
2:33 PM,33.8,32.0,93,29.40,5.0,West,18.4,24.2,N/A,,Overcast,260,2012-12-03 20:33:00
2:54 PM,33.8,32.0,93,29.41,4.0,West,17.3,21.9,N/A,,Overcast,260,2012-12-03 20:54:00
3:14 PM,33.8,32.0,93,29.41,4.0,WSW,16.1,27.6,N/A,,Overcast,250,2012-12-03 21:14:00
3:33 PM,33.8,30.2,87,29.42,7.0,West,18.4,25.3,N/A,,Overcast,260,2012-12-03 21:33:00
3:54 PM,33.8,30.2,87,29.43,10.0,West,25.3,28.8,N/A,,Overcast,260,2012-12-03 21:54:00
4:13 PM,33.8,28.4,81,29.44,10.0,WSW,19.6,25.3,N/A,,Overcast,250,2012-12-03 22:13:00
4:53 PM,30.2,24.8,80,29.47,10.0,West,18.4,31.1,N/A,,Overcast,270,2012-12-03 22:53:00
5:14 PM,30.2,24.8,80,29.47,10.0,West,20.7,26.5,N/A,,Overcast,270,2012-12-03 23:14:00
5:54 PM,28.4,21.2,74,29.51,10.0,West,23.0,34.5,N/A,,Overcast,280,2012-12-03 23:54:00
6:13 PM,26.6,21.2,80,29.52,10.0,West,21.9,34.5,N/A,,Overcast,270,2012-12-04 00:13:00
6:34 PM,26.6,19.4,74,29.53,10.0,West,19.6,28.8,N/A,,Overcast,270,2012-12-04 00:34:00
6:54 PM,24.8,19.4,80,29.54,10.0,WSW,24.2,35.7,N/A,,Overcast,250,2012-12-04 00:54:00
7:13 PM,24.8,17.6,74,29.56,10.0,West,24.2,33.4,N/A,,Overcast,260,2012-12-04 01:13:00
7:34 PM,23.0,17.6,80,29.57,10.0,West,28.8,35.7,N/A,,Overcast,270,2012-12-04 01:34:00
7:54 PM,21.2,17.6,86,29.58,2.0,West,25.3,31.1,N/A,Snow,Light Snow,260,2012-12-04 01:54:00
8:13 PM,19.4,14.0,80,29.60,5.0,West,32.2,41.4,N/A,Snow,Light Snow,280,2012-12-04 02:13:00
8:34 PM,17.6,10.4,73,29.62,7.0,West,31.1,35.7,N/A,Snow,Light Snow,270,2012-12-04 02:34:00
8:53 PM,15.8,10.4,79,29.64,7.0,WNW,25.3,36.8,N/A,,Overcast,290,2012-12-04 02:53:00
9:13 PM,15.8,10.4,79,29.65,5.0,West,26.5,34.5,N/A,Snow,Light Snow,280,2012-12-04 03:13:00
9:33 PM,15.8,10.4,79,29.66,10.0,West,19.6,26.5,N/A,Snow,Light Snow,270,2012-12-04 03:33:00
9:53 PM,15.8,10.4,79,29.67,1.8,West,15.0,29.9,N/A,Snow,Light Snow,280,2012-12-04 03:53:00
10:14 PM,15.8,6.8,68,29.68,10.0,West,29.9,46.0,N/A,,Overcast,280,2012-12-04 04:14:00
10:53 PM,12.2,6.8,79,29.70,5.0,West,23.0,38.0,N/A,,Haze,280,2012-12-04 04:53:00
11:14 PM,12.2,5.0,73,29.72,5.0,West,27.6,39.1,N/A,,Haze,270,2012-12-04 05:14:00
11:34 PM,12.2,5.0,73,29.72,10.0,West,24.2,34.5,N/A,,Overcast,280,2012-12-04 05:34:00